sensor_id;sensor_type;location;lat;lon;timestamp;P1;durP1;ratioP1;P2;durP2;ratioP2
35634;SDS011;21757;43.610;1.440;2024-02-15T00:01:40;3.60;;;1.60;;
35634;SDS011;21757;43.610;1.440;2024-02-15T00:04:06;4.75;;;1.65;;
35634;SDS011;21757;43.610;1.440;2024-02-15T00:06:32;3.25;;;1.63;;
35634;SDS011;21757;43.610;1.440;2024-02-15T00:08:58;3.38;;;1.70;;
35634;SDS011;21757;43.610;1.440;2024-02-15T00:11:23;3.60;;;1.50;;
35634;SDS011;21757;43.610;1.440;2024-02-15T00:13:49;4.72;;;1.92;;
35634;SDS011;21757;43.610;1.440;2024-02-15T00:16:14;4.20;;;1.80;;
35634;SDS011;21757;43.610;1.440;2024-02-15T00:18:40;3.78;;;2.10;;
35634;SDS011;21757;43.610;1.440;2024-02-15T00:21:06;4.00;;;1.90;;
35634;SDS011;21757;43.610;1.440;2024-02-15T00:23:32;4.80;;;2.28;;
35634;SDS011;21757;43.610;1.440;2024-02-15T00:25:58;3.83;;;2.03;;
35634;SDS011;21757;43.610;1.440;2024-02-15T00:28:24;5.80;;;2.53;;
35634;SDS011;21757;43.610;1.440;2024-02-15T00:30:51;4.18;;;2.17;;
35634;SDS011;21757;43.610;1.440;2024-02-15T00:33:17;5.15;;;2.50;;
35634;SDS011;21757;43.610;1.440;2024-02-15T00:35:43;7.43;;;2.25;;
35634;SDS011;21757;43.610;1.440;2024-02-15T00:38:09;5.80;;;2.40;;
35634;SDS011;21757;43.610;1.440;2024-02-15T00:40:35;4.90;;;2.47;;
35634;SDS011;21757;43.610;1.440;2024-02-15T00:43:00;6.00;;;2.30;;
35634;SDS011;21757;43.610;1.440;2024-02-15T00:45:26;4.63;;;2.45;;
35634;SDS011;21757;43.610;1.440;2024-02-15T00:47:52;3.65;;;2.33;;
35634;SDS011;21757;43.610;1.440;2024-02-15T00:50:19;4.18;;;2.53;;
35634;SDS011;21757;43.610;1.440;2024-02-15T00:52:44;5.50;;;2.70;;
35634;SDS011;21757;43.610;1.440;2024-02-15T00:55:10;6.32;;;2.88;;
35634;SDS011;21757;43.610;1.440;2024-02-15T00:57:36;4.47;;;2.60;;
35634;SDS011;21757;43.610;1.440;2024-02-15T01:00:02;5.10;;;2.85;;
35634;SDS011;21757;43.610;1.440;2024-02-15T01:02:32;5.45;;;3.13;;
35634;SDS011;21757;43.610;1.440;2024-02-15T01:04:58;7.65;;;3.55;;
35634;SDS011;21757;43.610;1.440;2024-02-15T01:07:24;6.97;;;2.95;;
35634;SDS011;21757;43.610;1.440;2024-02-15T01:09:53;7.90;;;3.13;;
35634;SDS011;21757;43.610;1.440;2024-02-15T01:12:19;5.75;;;3.20;;
35634;SDS011;21757;43.610;1.440;2024-02-15T01:14:46;6.13;;;3.08;;
35634;SDS011;21757;43.610;1.440;2024-02-15T01:17:12;7.65;;;3.35;;
35634;SDS011;21757;43.610;1.440;2024-02-15T01:19:38;6.43;;;3.33;;
35634;SDS011;21757;43.610;1.440;2024-02-15T01:22:04;6.25;;;3.10;;
35634;SDS011;21757;43.610;1.440;2024-02-15T01:24:31;7.10;;;3.47;;
35634;SDS011;21757;43.610;1.440;2024-02-15T01:26:57;5.70;;;3.40;;
35634;SDS011;21757;43.610;1.440;2024-02-15T01:29:23;9.95;;;3.53;;
35634;SDS011;21757;43.610;1.440;2024-02-15T01:31:50;7.55;;;4.00;;
35634;SDS011;21757;43.610;1.440;2024-02-15T01:34:16;7.78;;;4.45;;
35634;SDS011;21757;43.610;1.440;2024-02-15T01:36:42;7.47;;;3.95;;
35634;SDS011;21757;43.610;1.440;2024-02-15T01:39:07;9.57;;;4.15;;
35634;SDS011;21757;43.610;1.440;2024-02-15T01:41:33;6.65;;;4.72;;
35634;SDS011;21757;43.610;1.440;2024-02-15T01:43:59;8.05;;;4.90;;
35634;SDS011;21757;43.610;1.440;2024-02-15T01:46:25;9.35;;;5.38;;
35634;SDS011;21757;43.610;1.440;2024-02-15T01:48:51;9.00;;;5.05;;
35634;SDS011;21757;43.610;1.440;2024-02-15T01:51:16;8.82;;;5.20;;
35634;SDS011;21757;43.610;1.440;2024-02-15T01:53:43;10.80;;;6.05;;
35634;SDS011;21757;43.610;1.440;2024-02-15T01:56:09;10.38;;;5.40;;
35634;SDS011;21757;43.610;1.440;2024-02-15T01:58:39;9.32;;;5.22;;
35634;SDS011;21757;43.610;1.440;2024-02-15T02:01:06;8.82;;;5.30;;
35634;SDS011;21757;43.610;1.440;2024-02-15T02:03:32;11.55;;;6.05;;
35634;SDS011;21757;43.610;1.440;2024-02-15T02:05:57;10.23;;;5.72;;
35634;SDS011;21757;43.610;1.440;2024-02-15T02:08:25;12.82;;;5.55;;
35634;SDS011;21757;43.610;1.440;2024-02-15T02:10:51;10.45;;;6.00;;
35634;SDS011;21757;43.610;1.440;2024-02-15T02:13:17;10.35;;;5.78;;
35634;SDS011;21757;43.610;1.440;2024-02-15T02:15:43;8.38;;;6.03;;
35634;SDS011;21757;43.610;1.440;2024-02-15T02:18:09;8.90;;;5.75;;
35634;SDS011;21757;43.610;1.440;2024-02-15T02:20:35;9.13;;;5.90;;
35634;SDS011;21757;43.610;1.440;2024-02-15T02:23:13;11.57;;;6.45;;
35634;SDS011;21757;43.610;1.440;2024-02-15T02:25:40;12.25;;;5.90;;
35634;SDS011;21757;43.610;1.440;2024-02-15T02:28:07;11.25;;;5.32;;
35634;SDS011;21757;43.610;1.440;2024-02-15T02:30:34;9.13;;;5.10;;
35634;SDS011;21757;43.610;1.440;2024-02-15T02:32:59;9.93;;;5.03;;
35634;SDS011;21757;43.610;1.440;2024-02-15T02:35:26;8.63;;;5.30;;
35634;SDS011;21757;43.610;1.440;2024-02-15T02:37:55;6.93;;;5.05;;
35634;SDS011;21757;43.610;1.440;2024-02-15T02:40:21;7.82;;;4.50;;
35634;SDS011;21757;43.610;1.440;2024-02-15T02:42:50;10.32;;;5.00;;
35634;SDS011;21757;43.610;1.440;2024-02-15T02:45:18;7.40;;;4.30;;
35634;SDS011;21757;43.610;1.440;2024-02-15T02:47:45;7.80;;;4.20;;
35634;SDS011;21757;43.610;1.440;2024-02-15T02:50:12;13.63;;;4.57;;
35634;SDS011;21757;43.610;1.440;2024-02-15T02:52:38;8.02;;;4.30;;
35634;SDS011;21757;43.610;1.440;2024-02-15T02:55:04;8.65;;;4.25;;
35634;SDS011;21757;43.610;1.440;2024-02-15T02:57:36;9.32;;;4.50;;
35634;SDS011;21757;43.610;1.440;2024-02-15T03:00:06;8.05;;;4.30;;
35634;SDS011;21757;43.610;1.440;2024-02-15T03:02:34;11.02;;;4.55;;
35634;SDS011;21757;43.610;1.440;2024-02-15T03:05:01;9.35;;;4.80;;
35634;SDS011;21757;43.610;1.440;2024-02-15T03:07:29;7.68;;;4.55;;
35634;SDS011;21757;43.610;1.440;2024-02-15T03:09:57;8.35;;;4.80;;
35634;SDS011;21757;43.610;1.440;2024-02-15T03:12:22;7.78;;;4.07;;
35634;SDS011;21757;43.610;1.440;2024-02-15T03:14:48;12.05;;;4.60;;
35634;SDS011;21757;43.610;1.440;2024-02-15T03:17:14;7.50;;;4.60;;
35634;SDS011;21757;43.610;1.440;2024-02-15T03:19:39;9.05;;;4.97;;
35634;SDS011;21757;43.610;1.440;2024-02-15T03:22:05;11.13;;;4.80;;
35634;SDS011;21757;43.610;1.440;2024-02-15T03:24:31;10.15;;;5.32;;
35634;SDS011;21757;43.610;1.440;2024-02-15T03:26:57;9.05;;;5.30;;
35634;SDS011;21757;43.610;1.440;2024-02-15T03:29:22;10.00;;;5.47;;
35634;SDS011;21757;43.610;1.440;2024-02-15T03:31:48;11.38;;;5.13;;
35634;SDS011;21757;43.610;1.440;2024-02-15T03:34:14;8.13;;;5.35;;
35634;SDS011;21757;43.610;1.440;2024-02-15T03:36:40;7.88;;;5.05;;
35634;SDS011;21757;43.610;1.440;2024-02-15T03:39:06;10.13;;;5.18;;
35634;SDS011;21757;43.610;1.440;2024-02-15T03:41:33;9.38;;;4.80;;
35634;SDS011;21757;43.610;1.440;2024-02-15T03:43:59;8.13;;;5.03;;
35634;SDS011;21757;43.610;1.440;2024-02-15T03:46:25;9.32;;;4.53;;
35634;SDS011;21757;43.610;1.440;2024-02-15T03:48:53;11.27;;;4.82;;
35634;SDS011;21757;43.610;1.440;2024-02-15T03:51:18;8.90;;;4.78;;
35634;SDS011;21757;43.610;1.440;2024-02-15T03:53:45;10.57;;;5.38;;
35634;SDS011;21757;43.610;1.440;2024-02-15T03:56:12;9.32;;;5.22;;
35634;SDS011;21757;43.610;1.440;2024-02-15T03:58:38;10.65;;;5.57;;
35634;SDS011;21757;43.610;1.440;2024-02-15T04:01:04;8.82;;;4.82;;
35634;SDS011;21757;43.610;1.440;2024-02-15T04:03:31;7.53;;;4.80;;
35634;SDS011;21757;43.610;1.440;2024-02-15T04:05:59;10.95;;;5.18;;
35634;SDS011;21757;43.610;1.440;2024-02-15T04:08:26;9.15;;;5.00;;
35634;SDS011;21757;43.610;1.440;2024-02-15T04:10:52;9.10;;;5.60;;
35634;SDS011;21757;43.610;1.440;2024-02-15T04:13:18;9.85;;;5.60;;
35634;SDS011;21757;43.610;1.440;2024-02-15T04:15:44;9.85;;;5.70;;
35634;SDS011;21757;43.610;1.440;2024-02-15T04:18:12;8.15;;;5.57;;
35634;SDS011;21757;43.610;1.440;2024-02-15T04:20:39;9.93;;;6.47;;
35634;SDS011;21757;43.610;1.440;2024-02-15T04:23:10;9.90;;;6.57;;
35634;SDS011;21757;43.610;1.440;2024-02-15T04:25:36;11.55;;;6.63;;
35634;SDS011;21757;43.610;1.440;2024-02-15T04:28:01;8.35;;;5.95;;
35634;SDS011;21757;43.610;1.440;2024-02-15T04:30:28;9.35;;;6.50;;
35634;SDS011;21757;43.610;1.440;2024-02-15T04:32:57;10.98;;;6.53;;
35634;SDS011;21757;43.610;1.440;2024-02-15T04:35:23;12.38;;;6.60;;
35634;SDS011;21757;43.610;1.440;2024-02-15T04:37:51;8.18;;;5.90;;
35634;SDS011;21757;43.610;1.440;2024-02-15T04:40:18;7.68;;;5.50;;
35634;SDS011;21757;43.610;1.440;2024-02-15T04:42:44;8.23;;;5.28;;
35634;SDS011;21757;43.610;1.440;2024-02-15T04:45:12;10.73;;;5.05;;
35634;SDS011;21757;43.610;1.440;2024-02-15T04:47:40;10.43;;;5.32;;
35634;SDS011;21757;43.610;1.440;2024-02-15T04:50:07;8.18;;;5.22;;
35634;SDS011;21757;43.610;1.440;2024-02-15T04:52:34;9.30;;;4.90;;
35634;SDS011;21757;43.610;1.440;2024-02-15T04:55:00;6.18;;;4.78;;
35634;SDS011;21757;43.610;1.440;2024-02-15T04:57:29;8.00;;;5.47;;
35634;SDS011;21757;43.610;1.440;2024-02-15T04:59:55;13.18;;;5.90;;
35634;SDS011;21757;43.610;1.440;2024-02-15T05:02:21;10.18;;;5.72;;
35634;SDS011;21757;43.610;1.440;2024-02-15T05:04:49;12.77;;;6.38;;
35634;SDS011;21757;43.610;1.440;2024-02-15T05:07:20;9.13;;;6.10;;
35634;SDS011;21757;43.610;1.440;2024-02-15T05:09:47;10.00;;;6.18;;
35634;SDS011;21757;43.610;1.440;2024-02-15T05:12:21;9.80;;;6.38;;
35634;SDS011;21757;43.610;1.440;2024-02-15T05:14:48;11.90;;;6.95;;
35634;SDS011;21757;43.610;1.440;2024-02-15T05:17:14;11.10;;;6.53;;
35634;SDS011;21757;43.610;1.440;2024-02-15T05:19:39;11.77;;;6.18;;
35634;SDS011;21757;43.610;1.440;2024-02-15T05:22:05;10.38;;;6.47;;
35634;SDS011;21757;43.610;1.440;2024-02-15T05:24:31;8.70;;;6.25;;
35634;SDS011;21757;43.610;1.440;2024-02-15T05:26:58;12.98;;;5.95;;
35634;SDS011;21757;43.610;1.440;2024-02-15T05:29:24;10.82;;;5.93;;
35634;SDS011;21757;43.610;1.440;2024-02-15T05:31:50;11.30;;;5.97;;
35634;SDS011;21757;43.610;1.440;2024-02-15T05:34:17;10.40;;;5.60;;
35634;SDS011;21757;43.610;1.440;2024-02-15T05:36:43;14.88;;;5.63;;
35634;SDS011;21757;43.610;1.440;2024-02-15T05:39:09;11.63;;;5.60;;
35634;SDS011;21757;43.610;1.440;2024-02-15T05:41:36;9.27;;;5.57;;
35634;SDS011;21757;43.610;1.440;2024-02-15T05:44:02;10.20;;;5.15;;
35634;SDS011;21757;43.610;1.440;2024-02-15T05:46:31;10.25;;;6.18;;
35634;SDS011;21757;43.610;1.440;2024-02-15T05:48:58;11.30;;;6.05;;
35634;SDS011;21757;43.610;1.440;2024-02-15T05:51:24;10.80;;;6.40;;
35634;SDS011;21757;43.610;1.440;2024-02-15T05:53:50;8.25;;;5.43;;
35634;SDS011;21757;43.610;1.440;2024-02-15T05:56:18;13.52;;;5.93;;
35634;SDS011;21757;43.610;1.440;2024-02-15T05:58:45;8.63;;;5.50;;
35634;SDS011;21757;43.610;1.440;2024-02-15T06:01:11;9.02;;;5.28;;
35634;SDS011;21757;43.610;1.440;2024-02-15T06:03:38;6.47;;;5.22;;
35634;SDS011;21757;43.610;1.440;2024-02-15T06:06:05;9.27;;;6.00;;
35634;SDS011;21757;43.610;1.440;2024-02-15T06:08:34;8.57;;;5.35;;
35634;SDS011;21757;43.610;1.440;2024-02-15T06:11:00;10.95;;;6.00;;
35634;SDS011;21757;43.610;1.440;2024-02-15T06:13:26;8.73;;;5.45;;
35634;SDS011;21757;43.610;1.440;2024-02-15T06:15:52;6.63;;;5.07;;
35634;SDS011;21757;43.610;1.440;2024-02-15T06:18:19;7.57;;;5.45;;
35634;SDS011;21757;43.610;1.440;2024-02-15T06:20:46;10.00;;;5.40;;
35634;SDS011;21757;43.610;1.440;2024-02-15T06:23:15;7.90;;;5.20;;
35634;SDS011;21757;43.610;1.440;2024-02-15T06:25:46;7.85;;;5.40;;
35634;SDS011;21757;43.610;1.440;2024-02-15T06:28:12;8.63;;;5.75;;
35634;SDS011;21757;43.610;1.440;2024-02-15T06:30:45;8.52;;;5.78;;
35634;SDS011;21757;43.610;1.440;2024-02-15T06:33:29;12.13;;;6.32;;
35634;SDS011;21757;43.610;1.440;2024-02-15T06:36:14;15.27;;;6.38;;
35634;SDS011;21757;43.610;1.440;2024-02-15T06:38:58;8.93;;;6.05;;
35634;SDS011;21757;43.610;1.440;2024-02-15T06:41:42;10.00;;;5.28;;
35634;SDS011;21757;43.610;1.440;2024-02-15T06:44:08;9.00;;;5.85;;
35634;SDS011;21757;43.610;1.440;2024-02-15T06:46:34;8.05;;;5.70;;
35634;SDS011;21757;43.610;1.440;2024-02-15T06:49:00;10.75;;;5.68;;
35634;SDS011;21757;43.610;1.440;2024-02-15T06:51:26;9.65;;;5.40;;
35634;SDS011;21757;43.610;1.440;2024-02-15T06:53:51;7.30;;;5.50;;
35634;SDS011;21757;43.610;1.440;2024-02-15T06:56:20;9.13;;;5.40;;
35634;SDS011;21757;43.610;1.440;2024-02-15T06:58:47;6.22;;;4.25;;
35634;SDS011;21757;43.610;1.440;2024-02-15T07:01:13;6.38;;;4.38;;
35634;SDS011;21757;43.610;1.440;2024-02-15T07:03:41;7.10;;;4.47;;
35634;SDS011;21757;43.610;1.440;2024-02-15T07:06:13;7.80;;;4.53;;
35634;SDS011;21757;43.610;1.440;2024-02-15T07:08:39;9.15;;;4.72;;
35634;SDS011;21757;43.610;1.440;2024-02-15T07:11:08;6.45;;;4.63;;
35634;SDS011;21757;43.610;1.440;2024-02-15T07:13:35;7.50;;;4.50;;
35634;SDS011;21757;43.610;1.440;2024-02-15T07:16:02;11.15;;;5.30;;
35634;SDS011;21757;43.610;1.440;2024-02-15T07:18:32;7.45;;;4.95;;
35634;SDS011;21757;43.610;1.440;2024-02-15T07:20:58;10.50;;;5.28;;
35634;SDS011;21757;43.610;1.440;2024-02-15T07:23:26;9.68;;;5.47;;
35634;SDS011;21757;43.610;1.440;2024-02-15T07:25:52;8.95;;;5.28;;
35634;SDS011;21757;43.610;1.440;2024-02-15T07:28:19;8.95;;;5.40;;
35634;SDS011;21757;43.610;1.440;2024-02-15T07:30:46;10.43;;;5.63;;
35634;SDS011;21757;43.610;1.440;2024-02-15T07:33:14;11.73;;;5.63;;
35634;SDS011;21757;43.610;1.440;2024-02-15T07:35:42;8.02;;;5.75;;
35634;SDS011;21757;43.610;1.440;2024-02-15T07:38:11;9.98;;;5.70;;
35634;SDS011;21757;43.610;1.440;2024-02-15T07:40:37;10.55;;;6.32;;
35634;SDS011;21757;43.610;1.440;2024-02-15T07:43:04;10.02;;;6.13;;
35634;SDS011;21757;43.610;1.440;2024-02-15T07:45:31;10.15;;;5.68;;
35634;SDS011;21757;43.610;1.440;2024-02-15T07:48:00;8.95;;;5.60;;
35634;SDS011;21757;43.610;1.440;2024-02-15T07:50:26;11.25;;;6.10;;
35634;SDS011;21757;43.610;1.440;2024-02-15T07:52:51;7.15;;;5.40;;
35634;SDS011;21757;43.610;1.440;2024-02-15T07:55:18;7.72;;;5.57;;
35634;SDS011;21757;43.610;1.440;2024-02-15T07:57:44;9.73;;;6.15;;
35634;SDS011;21757;43.610;1.440;2024-02-15T08:00:13;7.88;;;5.30;;
35634;SDS011;21757;43.610;1.440;2024-02-15T08:02:41;6.57;;;4.93;;
35634;SDS011;21757;43.610;1.440;2024-02-15T08:05:09;7.75;;;4.45;;
35634;SDS011;21757;43.610;1.440;2024-02-15T08:07:42;7.97;;;4.47;;
35634;SDS011;21757;43.610;1.440;2024-02-15T08:10:09;6.43;;;4.72;;
35634;SDS011;21757;43.610;1.440;2024-02-15T08:12:44;6.22;;;4.60;;
35634;SDS011;21757;43.610;1.440;2024-02-15T08:15:11;5.85;;;4.35;;
35634;SDS011;21757;43.610;1.440;2024-02-15T08:17:40;7.15;;;4.57;;
35634;SDS011;21757;43.610;1.440;2024-02-15T08:20:09;7.25;;;4.53;;
35634;SDS011;21757;43.610;1.440;2024-02-15T08:22:36;6.57;;;4.68;;
35634;SDS011;21757;43.610;1.440;2024-02-15T08:25:11;6.30;;;4.55;;
35634;SDS011;21757;43.610;1.440;2024-02-15T08:27:38;8.85;;;5.05;;
35634;SDS011;21757;43.610;1.440;2024-02-15T08:32:36;6.85;;;5.38;;
35634;SDS011;21757;43.610;1.440;2024-02-15T08:35:02;10.73;;;7.57;;
35634;SDS011;21757;43.610;1.440;2024-02-15T08:37:30;9.35;;;5.53;;
35634;SDS011;21757;43.610;1.440;2024-02-15T08:39:57;8.48;;;5.28;;
35634;SDS011;21757;43.610;1.440;2024-02-15T08:42:22;9.52;;;6.57;;
35634;SDS011;21757;43.610;1.440;2024-02-15T08:44:49;7.30;;;4.95;;
35634;SDS011;21757;43.610;1.440;2024-02-15T08:47:15;9.95;;;5.07;;
35634;SDS011;21757;43.610;1.440;2024-02-15T08:49:41;9.23;;;4.47;;
35634;SDS011;21757;43.610;1.440;2024-02-15T08:52:06;7.15;;;4.30;;
35634;SDS011;21757;43.610;1.440;2024-02-15T08:54:35;6.65;;;4.22;;
35634;SDS011;21757;43.610;1.440;2024-02-15T08:57:04;9.88;;;4.97;;
35634;SDS011;21757;43.610;1.440;2024-02-15T08:59:29;18.63;;;8.30;;
35634;SDS011;21757;43.610;1.440;2024-02-15T09:01:55;6.20;;;4.57;;
35634;SDS011;21757;43.610;1.440;2024-02-15T09:04:22;5.40;;;3.90;;
35634;SDS011;21757;43.610;1.440;2024-02-15T09:06:49;8.15;;;3.90;;
35634;SDS011;21757;43.610;1.440;2024-02-15T09:09:16;7.68;;;4.68;;
35634;SDS011;21757;43.610;1.440;2024-02-15T09:11:42;9.57;;;4.20;;
35634;SDS011;21757;43.610;1.440;2024-02-15T09:14:07;11.63;;;5.30;;
35634;SDS011;21757;43.610;1.440;2024-02-15T09:16:37;6.45;;;4.20;;
35634;SDS011;21757;43.610;1.440;2024-02-15T09:19:04;11.48;;;5.55;;
35634;SDS011;21757;43.610;1.440;2024-02-15T09:21:31;10.65;;;4.18;;
35634;SDS011;21757;43.610;1.440;2024-02-15T09:23:58;5.22;;;3.92;;
35634;SDS011;21757;43.610;1.440;2024-02-15T09:26:24;4.63;;;3.53;;
35634;SDS011;21757;43.610;1.440;2024-02-15T09:28:50;5.30;;;3.70;;
35634;SDS011;21757;43.610;1.440;2024-02-15T09:31:18;7.63;;;3.97;;
35634;SDS011;21757;43.610;1.440;2024-02-15T09:33:44;6.10;;;4.53;;
35634;SDS011;21757;43.610;1.440;2024-02-15T09:36:10;6.68;;;3.67;;
35634;SDS011;21757;43.610;1.440;2024-02-15T09:38:37;5.43;;;3.80;;
35634;SDS011;21757;43.610;1.440;2024-02-15T09:41:03;6.00;;;4.30;;
35634;SDS011;21757;43.610;1.440;2024-02-15T09:43:32;10.43;;;6.32;;
35634;SDS011;21757;43.610;1.440;2024-02-15T09:45:58;17.30;;;13.00;;
35634;SDS011;21757;43.610;1.440;2024-02-15T09:48:25;10.05;;;3.88;;
35634;SDS011;21757;43.610;1.440;2024-02-15T09:50:52;7.72;;;3.58;;
35634;SDS011;21757;43.610;1.440;2024-02-15T09:53:21;8.07;;;3.90;;
35634;SDS011;21757;43.610;1.440;2024-02-15T09:55:50;6.67;;;4.20;;
35634;SDS011;21757;43.610;1.440;2024-02-15T09:58:19;8.02;;;3.70;;
35634;SDS011;21757;43.610;1.440;2024-02-15T10:00:45;8.23;;;3.90;;
35634;SDS011;21757;43.610;1.440;2024-02-15T10:03:11;7.60;;;3.45;;
35634;SDS011;21757;43.610;1.440;2024-02-15T10:05:43;7.53;;;3.72;;
35634;SDS011;21757;43.610;1.440;2024-02-15T10:08:09;7.30;;;3.80;;
35634;SDS011;21757;43.610;1.440;2024-02-15T10:10:36;5.30;;;3.53;;
35634;SDS011;21757;43.610;1.440;2024-02-15T10:13:01;13.57;;;6.60;;
35634;SDS011;21757;43.610;1.440;2024-02-15T10:15:28;8.07;;;4.90;;
35634;SDS011;21757;43.610;1.440;2024-02-15T10:17:56;9.13;;;5.10;;
35634;SDS011;21757;43.610;1.440;2024-02-15T10:20:23;7.18;;;4.80;;
35634;SDS011;21757;43.610;1.440;2024-02-15T10:22:53;8.23;;;4.70;;
35634;SDS011;21757;43.610;1.440;2024-02-15T10:25:28;6.97;;;4.63;;
35634;SDS011;21757;43.610;1.440;2024-02-15T10:28:03;9.27;;;4.93;;
35634;SDS011;21757;43.610;1.440;2024-02-15T10:30:35;10.90;;;4.70;;
35634;SDS011;21757;43.610;1.440;2024-02-15T10:33:02;10.77;;;6.57;;
35634;SDS011;21757;43.610;1.440;2024-02-15T10:35:29;12.63;;;5.40;;
35634;SDS011;21757;43.610;1.440;2024-02-15T10:38:04;6.75;;;4.60;;
35634;SDS011;21757;43.610;1.440;2024-02-15T10:40:30;6.93;;;4.70;;
35634;SDS011;21757;43.610;1.440;2024-02-15T10:42:56;6.45;;;4.53;;
35634;SDS011;21757;43.610;1.440;2024-02-15T10:45:24;6.55;;;4.50;;
35634;SDS011;21757;43.610;1.440;2024-02-15T10:47:50;9.05;;;3.78;;
35634;SDS011;21757;43.610;1.440;2024-02-15T10:50:17;10.23;;;4.30;;
35634;SDS011;21757;43.610;1.440;2024-02-15T10:52:48;7.47;;;4.00;;
35634;SDS011;21757;43.610;1.440;2024-02-15T10:58:03;5.28;;;2.97;;
35634;SDS011;21757;43.610;1.440;2024-02-15T11:00:34;6.65;;;3.45;;
35634;SDS011;21757;43.610;1.440;2024-02-15T11:03:04;5.53;;;3.13;;
35634;SDS011;21757;43.610;1.440;2024-02-15T11:05:36;7.28;;;3.28;;
35634;SDS011;21757;43.610;1.440;2024-02-15T11:08:09;5.38;;;3.50;;
35634;SDS011;21757;43.610;1.440;2024-02-15T11:10:36;6.30;;;3.50;;
35634;SDS011;21757;43.610;1.440;2024-02-15T11:13:03;5.18;;;2.97;;
35634;SDS011;21757;43.610;1.440;2024-02-15T11:18:04;6.18;;;2.80;;
35634;SDS011;21757;43.610;1.440;2024-02-15T11:23:01;7.80;;;4.05;;
35634;SDS011;21757;43.610;1.440;2024-02-15T11:25:36;5.93;;;3.10;;
35634;SDS011;21757;43.610;1.440;2024-02-15T11:30:50;6.93;;;3.67;;
35634;SDS011;21757;43.610;1.440;2024-02-15T11:33:29;6.90;;;3.50;;
35634;SDS011;21757;43.610;1.440;2024-02-15T11:36:01;6.32;;;3.25;;
35634;SDS011;21757;43.610;1.440;2024-02-15T11:38:35;5.63;;;3.17;;
35634;SDS011;21757;43.610;1.440;2024-02-15T11:41:05;7.13;;;2.50;;
35634;SDS011;21757;43.610;1.440;2024-02-15T11:46:18;4.93;;;2.67;;
35634;SDS011;21757;43.610;1.440;2024-02-15T11:48:46;8.45;;;2.70;;
35634;SDS011;21757;43.610;1.440;2024-02-15T11:51:52;4.72;;;2.72;;
35634;SDS011;21757;43.610;1.440;2024-02-15T11:54:13;4.70;;;2.88;;
35634;SDS011;21757;43.610;1.440;2024-02-15T11:59:16;7.03;;;3.42;;
35634;SDS011;21757;43.610;1.440;2024-02-15T12:01:56;5.90;;;3.03;;
35634;SDS011;21757;43.610;1.440;2024-02-15T12:04:41;5.18;;;2.72;;
35634;SDS011;21757;43.610;1.440;2024-02-15T12:07:26;12.98;;;7.32;;
35634;SDS011;21757;43.610;1.440;2024-02-15T12:10:19;10.00;;;5.40;;
35634;SDS011;21757;43.610;1.440;2024-02-15T12:13:04;6.70;;;3.15;;
35634;SDS011;21757;43.610;1.440;2024-02-15T12:15:55;7.80;;;3.53;;
35634;SDS011;21757;43.610;1.440;2024-02-15T12:18:43;7.80;;;3.83;;
35634;SDS011;21757;43.610;1.440;2024-02-15T12:21:12;3.72;;;3.05;;
35634;SDS011;21757;43.610;1.440;2024-02-15T12:23:41;7.95;;;3.35;;
35634;SDS011;21757;43.610;1.440;2024-02-15T12:26:07;6.97;;;3.15;;
35634;SDS011;21757;43.610;1.440;2024-02-15T12:28:33;5.43;;;2.90;;
35634;SDS011;21757;43.610;1.440;2024-02-15T12:31:02;5.60;;;3.50;;
35634;SDS011;21757;43.610;1.440;2024-02-15T12:33:31;7.53;;;3.42;;
35634;SDS011;21757;43.610;1.440;2024-02-15T12:36:03;6.75;;;3.10;;
35634;SDS011;21757;43.610;1.440;2024-02-15T12:38:33;11.43;;;7.22;;
35634;SDS011;21757;43.610;1.440;2024-02-15T12:41:02;6.70;;;3.70;;
35634;SDS011;21757;43.610;1.440;2024-02-15T12:43:29;8.27;;;3.90;;
35634;SDS011;21757;43.610;1.440;2024-02-15T12:45:55;7.68;;;4.15;;
35634;SDS011;21757;43.610;1.440;2024-02-15T12:48:22;7.03;;;3.40;;
35634;SDS011;21757;43.610;1.440;2024-02-15T12:50:47;5.82;;;3.13;;
35634;SDS011;21757;43.610;1.440;2024-02-15T12:53:20;5.65;;;2.97;;
35634;SDS011;21757;43.610;1.440;2024-02-15T12:55:52;6.53;;;2.67;;
35634;SDS011;21757;43.610;1.440;2024-02-15T12:58:22;7.68;;;2.90;;
35634;SDS011;21757;43.610;1.440;2024-02-15T13:00:50;6.60;;;2.90;;
35634;SDS011;21757;43.610;1.440;2024-02-15T13:03:20;8.57;;;3.47;;
35634;SDS011;21757;43.610;1.440;2024-02-15T13:05:46;10.90;;;6.35;;
35634;SDS011;21757;43.610;1.440;2024-02-15T13:08:13;12.23;;;6.00;;
35634;SDS011;21757;43.610;1.440;2024-02-15T13:10:41;9.70;;;4.95;;
35634;SDS011;21757;43.610;1.440;2024-02-15T13:13:06;7.78;;;3.72;;
35634;SDS011;21757;43.610;1.440;2024-02-15T13:15:34;5.13;;;2.38;;
35634;SDS011;21757;43.610;1.440;2024-02-15T13:18:01;5.80;;;2.10;;
35634;SDS011;21757;43.610;1.440;2024-02-15T13:20:30;8.48;;;2.60;;
35634;SDS011;21757;43.610;1.440;2024-02-15T13:23:18;5.75;;;2.65;;
35634;SDS011;21757;43.610;1.440;2024-02-15T13:25:53;5.45;;;2.42;;
35634;SDS011;21757;43.610;1.440;2024-02-15T13:28:21;5.13;;;2.30;;
35634;SDS011;21757;43.610;1.440;2024-02-15T13:30:48;3.97;;;2.55;;
35634;SDS011;21757;43.610;1.440;2024-02-15T13:33:14;4.78;;;2.30;;
35634;SDS011;21757;43.610;1.440;2024-02-15T13:35:41;6.00;;;2.47;;
35634;SDS011;21757;43.610;1.440;2024-02-15T13:38:06;4.60;;;2.30;;
35634;SDS011;21757;43.610;1.440;2024-02-15T13:40:39;5.47;;;2.47;;
35634;SDS011;21757;43.610;1.440;2024-02-15T13:43:06;5.25;;;2.13;;
35634;SDS011;21757;43.610;1.440;2024-02-15T13:45:34;5.00;;;2.30;;
35634;SDS011;21757;43.610;1.440;2024-02-15T13:48:04;3.88;;;1.90;;
35634;SDS011;21757;43.610;1.440;2024-02-15T13:50:32;10.45;;;6.13;;
35634;SDS011;21757;43.610;1.440;2024-02-15T13:52:59;7.03;;;3.30;;
35634;SDS011;21757;43.610;1.440;2024-02-15T13:55:25;5.63;;;3.05;;
35634;SDS011;21757;43.610;1.440;2024-02-15T13:57:51;8.50;;;2.85;;
35634;SDS011;21757;43.610;1.440;2024-02-15T14:00:21;9.02;;;4.20;;
35634;SDS011;21757;43.610;1.440;2024-02-15T14:03:02;7.47;;;2.90;;
35634;SDS011;21757;43.610;1.440;2024-02-15T14:05:31;3.97;;;2.85;;
35634;SDS011;21757;43.610;1.440;2024-02-15T14:10:25;7.45;;;2.33;;
35634;SDS011;21757;43.610;1.440;2024-02-15T14:12:52;6.75;;;2.38;;
35634;SDS011;21757;43.610;1.440;2024-02-15T14:15:26;5.57;;;2.60;;
35634;SDS011;21757;43.610;1.440;2024-02-15T14:17:52;4.18;;;2.22;;
35634;SDS011;21757;43.610;1.440;2024-02-15T14:20:18;7.80;;;2.28;;
35634;SDS011;21757;43.610;1.440;2024-02-15T14:22:46;6.63;;;2.33;;
35634;SDS011;21757;43.610;1.440;2024-02-15T14:25:21;4.95;;;1.80;;
35634;SDS011;21757;43.610;1.440;2024-02-15T14:27:56;6.63;;;2.10;;
35634;SDS011;21757;43.610;1.440;2024-02-15T14:30:22;3.65;;;2.00;;
35634;SDS011;21757;43.610;1.440;2024-02-15T14:33:07;2.40;;;1.60;;
35634;SDS011;21757;43.610;1.440;2024-02-15T14:35:41;7.07;;;2.33;;
35634;SDS011;21757;43.610;1.440;2024-02-15T14:38:08;5.18;;;1.90;;
35634;SDS011;21757;43.610;1.440;2024-02-15T14:40:39;7.13;;;2.15;;
35634;SDS011;21757;43.610;1.440;2024-02-15T14:43:07;3.55;;;2.03;;
35634;SDS011;21757;43.610;1.440;2024-02-15T14:45:34;5.03;;;2.35;;
35634;SDS011;21757;43.610;1.440;2024-02-15T14:48:01;4.03;;;1.90;;
35634;SDS011;21757;43.610;1.440;2024-02-15T14:50:28;5.85;;;2.20;;
35634;SDS011;21757;43.610;1.440;2024-02-15T14:52:54;5.25;;;2.40;;
35634;SDS011;21757;43.610;1.440;2024-02-15T14:55:20;3.97;;;1.95;;
35634;SDS011;21757;43.610;1.440;2024-02-15T14:57:46;6.22;;;2.10;;
35634;SDS011;21757;43.610;1.440;2024-02-15T15:00:12;5.00;;;2.53;;
35634;SDS011;21757;43.610;1.440;2024-02-15T15:02:47;5.72;;;2.60;;
35634;SDS011;21757;43.610;1.440;2024-02-15T15:05:13;4.90;;;2.30;;
35634;SDS011;21757;43.610;1.440;2024-02-15T15:07:58;4.22;;;2.10;;
35634;SDS011;21757;43.610;1.440;2024-02-15T15:10:44;4.05;;;2.13;;
35634;SDS011;21757;43.610;1.440;2024-02-15T15:13:30;6.47;;;2.55;;